• Join FlightAware (Why Join?)
  • Login
  • US Flag 
09:31AM EDT


 

Airport Tracker/Info


-or-


 

Live Flight TrackerFlight Track Log ✈ N16112 ✈ 18-Apr-2013 ✈ KCLT - KEWR

Flight Track Log - Related Links

Times and Time Zones

All times are in EDT time to prevent confusion due to time zone crossing. See the N16112 flight status page for this flight to view local times or setup timezone preferences in your user account.

Time Position Orientation Groundspeed Altitude Reporting Facility
EDT Latitude Longitude Course Direction KTS MPH feet Rate Location/Type
09:17AM 35.1747 -80.9486 176° South 170 196 2,300  Level FAA TRACON SMA TRACON (SMA)
09:18AM 35.1594 -80.9464 173° South 191 220 2,900 1,800 Climbing FAA TRACON SMA TRACON (SMA)
09:18AM 35.1464 -80.9336 141° Southeast 210 242 3,500 1,920 Climbing FAA TRACON SMA TRACON (SMA)
09:18AM 35.1303 -80.9122 133° Southeast 231 266 4,200 1,980 Climbing FAA TRACON SMA TRACON (SMA)
09:19AM 35.1189 -80.8953 129° Southeast 247 284 4,800 2,340 Climbing FAA TRACON SMA TRACON (SMA)
09:19AM 35.1025 -80.8744 134° Southeast 245 282 5,800 2,700 Climbing FAA TRACON SMA TRACON (SMA)
09:19AM 35.0933 -80.8444 110° East 242 278 6,600 1,620 Climbing FAA TRACON SMA TRACON (SMA)
09:20AM 35.1492 -80.6006 29° Northeast  Level FlightAware Approximate
09:20AM 35.0950 -80.8178 86° East 254 292 6,900  Level FAA TRACON SMA TRACON (SMA)
09:20AM 35.0972 -80.7911 84° East 252 290 7,000 120 Climbing FAA TRACON SMA TRACON (SMA)
09:20AM 35.1006 -80.7578 83° East 259 298 7,000  Level FAA TRACON SMA TRACON (SMA)
09:21AM 35.2305 -80.5449 30° Northeast  Level FlightAware Approximate
09:21AM 35.1039 -80.7308 81° East 263 303 7,000  Level FAA TRACON SMA TRACON (SMA)
09:21AM 35.1136 -80.7058 65° Northeast 277 319 7,400 1,860 Climbing FAA TRACON SMA TRACON (SMA)
09:21AM 35.1308 -80.6772 54° Northeast 278 320 8,300 2,520 Climbing FAA TRACON SMA TRACON (SMA)
09:22AM 35.3110 -80.4874 30° Northeast  Level FlightAware Approximate
09:22AM 35.1450 -80.6514 56° Northeast 284 327 9,100  Level FAA TRACON SMA TRACON (SMA)
09:22AM 35.1594 -80.6269 54° Northeast 287 330 9,800 2,040 Climbing FAA TRACON SMA TRACON (SMA)
09:22AM 35.1775 -80.5956 55° Northeast 293 337 10,500 1,500 Climbing FAA TRACON SMA TRACON (SMA)
09:23AM 35.1936 -80.5683 54° Northeast 322 371 10,800 1,020 Climbing FAA TRACON SMA TRACON (SMA)
09:23AM 35.2106 -80.5400 54° Northeast 348 400 11,200 1,200 Climbing FAA TRACON SMA TRACON (SMA)
09:23AM 35.2319 -80.5028 55° Northeast 353 406 11,600 1,320 Climbing FAA TRACON SMA TRACON (SMA)
09:24AM 35.2489 -80.4722 56° Northeast 357 411 12,100 1,560 Climbing FAA TRACON SMA TRACON (SMA)
09:24AM 35.2672 -80.4417 54° Northeast 359 413 12,700 1,980 Climbing FAA TRACON SMA TRACON (SMA)
09:24AM 35.2894 -80.4025 55° Northeast 363 418 13,400 1,800 Climbing FAA TRACON SMA TRACON (SMA)
09:25AM 35.3075 -80.3711 55° Northeast 365 420 13,900 1,620 Climbing FAA TRACON SMA TRACON (SMA)
09:25AM 35.3256 -80.3394 55° Northeast 366 421 14,500 1,920 Climbing FAA TRACON SMA TRACON (SMA)
09:25AM 35.3483 -80.2997 55° Northeast 369 425 15,200 1,740 Climbing FAA TRACON SMA TRACON (SMA)
09:26AM 35.3672 -80.2681 54° Northeast 371 427 15,700 1,500 Climbing FAA TRACON SMA TRACON (SMA)
09:26AM 35.3856 -80.2358 55° Northeast 373 429 16,200 1,620 Climbing FAA TRACON SMA TRACON (SMA)
09:26AM 35.4092 -80.1950 55° Northeast 378 435 16,800 1,500 Climbing FAA TRACON SMA TRACON (SMA)
09:27AM 35.4269 -80.1614 57° Northeast 380 437 17,200 1,380 Climbing FAA TRACON SMA TRACON (SMA)
09:27AM 35.4392 -80.1231 69° East 391 450 17,700 1,320 Climbing FAA TRACON SMA TRACON (SMA)
09:27AM 35.4503 -80.0739 74° East 391 450 18,100 1,260 Climbing FAA TRACON SMA TRACON (SMA)
09:28AM 35.4625 -80.0361 68° East 390 449 18,600 1,500 Climbing FAA TRACON SMA TRACON (SMA)
09:28AM 35.4708 -79.9961 76° East 391 450 19,100 1,620 Climbing FAA TRACON SMA TRACON (SMA)
09:28AM 35.4847 -79.9475 71° East 393 452 19,700 1,620 Climbing FAA TRACON SMA TRACON (SMA)
09:29AM 35.4942 -79.9078 74° East 392 451 20,200 1,620 Climbing FAA TRACON SMA TRACON (SMA)
09:29AM 35.5069 -79.8586 72° East 394 453 20,800 540 Climbing FAA TRACON SMA TRACON (SMA)
09:30AM 35.5069 -79.8586 349° North 394 453 20,800 1,320 Level FAA TRACON SMA TRACON (SMA)
09:30AM 35.5403 -79.7194 74° East 388 447 22,500 2,160 Climbing Washington Center
09:31AM 35.5764 -79.5758 73° East 394 453 24,200 1,500 Climbing Washington Center
09:32AM 35.6072 -79.4625 71° East 394 453 25,600 1,440 Climbing Washington Center
09:33AM 35.6508 -79.3444 66° East 389 448 27,100 1,500 Climbing Washington Center
09:34AM 35.7025 -79.2189 63° Northeast 384 442 28,600 1,200 Climbing Washington Center
09:35AM 35.7925 -79.1411 35° Northeast 374 430 29,600 1,020 Climbing Washington Center
09:36AM 35.8906 -79.0711 30° Northeast 380 437 30,700 1,020 Climbing Washington Center
09:37AM 35.9864 -79.0011 31° Northeast 391 450 31,700 1,020 Climbing Washington Center
09:38AM 36.0867 -78.9308 30° Northeast 398 458 32,800 1,020 Climbing Washington Center
09:39AM 36.1847 -78.8550 32° Northeast 404 465 33,800 960 Climbing Washington Center
09:40AM 36.2825 -78.7819 31° Northeast 410 472 34,800 600 Climbing Washington Center
09:41AM 36.3806 -78.7086 31° Northeast 410 472 35,000 60 Climbing Washington Center
09:42AM 36.4847 -78.6300 31° Northeast 415 478 35,000  Level Washington Center
09:43AM 36.5889 -78.5514 31° Northeast 428 493 35,000  Level Washington Center
09:44AM 36.6719 -78.4872 32° Northeast 433 498 35,000  Level Washington Center
09:45AM 36.7867 -78.4006 31° Northeast 433 498 35,000  Level Washington Center
09:46AM 36.8906 -78.3214 31° Northeast 433 498 35,000  Level Washington Center
09:47AM 36.9969 -78.2392 32° Northeast 433 498 35,000  Level Washington Center
09:48AM 37.1031 -78.1544 32° Northeast 438 504 35,000  Level Washington Center
09:49AM 37.2069 -78.0769 31° Northeast 438 504 35,000  Level Washington Center
09:50AM 37.3128 -77.9969 31° Northeast 438 504 35,000  Level Washington Center
09:51AM 37.4186 -77.9139 32° Northeast 438 504 35,000  Level Washington Center
09:52AM 37.5247 -77.8308 32° Northeast 438 504 35,000  Level Washington Center
09:53AM 37.6242 -77.7419 35° Northeast 438 504 35,000  Level Washington Center
09:54AM 37.7239 -77.6528 35° Northeast 438 504 35,000  Level Washington Center
09:55AM 37.8214 -77.5633 36° Northeast 432 497 35,000  Level Washington Center
09:56AM 37.9167 -77.4739 37° Northeast 432 497 35,000  Level Washington Center
09:57AM 38.0158 -77.3867 35° Northeast 432 497 35,000  Level Washington Center
09:58AM 38.1111 -77.2992 36° Northeast 432 497 35,000  Level Washington Center
09:59AM 38.2061 -77.2114 36° Northeast 432 497 35,000  Level Washington Center
10:00AM 38.3033 -77.1183 37° Northeast 432 497 35,000  Level Washington Center
10:01AM 38.3981 -77.0356 34° Northeast 425 489 35,000  Level Washington Center
10:02AM 38.4931 -76.9444 37° Northeast 425 489 35,000  Level Washington Center
10:03AM 38.5878 -76.8558 36° Northeast 456 525 35,000  Level Washington Center
10:04AM 38.6931 -76.7539 37° Northeast 444 511 35,000  Level Washington Center
10:05AM 38.7856 -76.6542 40° Northeast 439 505 35,000 -240 Level Washington Center
10:06AM 38.8761 -76.5461 43° Northeast 439 505 34,600 -1,140 Descending Washington Center
10:07AM 38.9686 -76.4381 42° Northeast 439 505 32,800 -2,040 Descending Washington Center
10:08AM 39.0592 -76.3319 42° Northeast 444 511 30,600 -2,160 Descending Washington Center
10:09AM 39.1514 -76.2233 42° Northeast 444 511 28,500 -1,800 Descending Washington Center
10:10AM 39.2414 -76.1222 41° Northeast 456 525 27,000 -1,260 Descending Washington Center
10:11AM 39.3378 -76.0156 41° Northeast 462 532 26,000 -1,020 Descending Washington Center
10:12AM 39.4297 -75.9033 43° Northeast 462 532 25,000 -1,020 Descending Washington Center
10:13AM 39.5239 -75.7961 41° Northeast 457 526 24,000 -960 Descending Washington Center
10:14AM 39.6136 -75.6886 43° Northeast 451 519 23,100 -960 Descending Washington Center
10:15AM 39.7053 -75.5753 44° Northeast 451 519 22,100 -1,620 Descending Washington Center
10:16AM 39.8011 -75.4619 42° Northeast 445 512 19,900 -2,100 Descending Washington Center
10:17AM 39.8883 -75.3561 43° Northeast 434 499 18,000 -2,400 Descending Washington Center
10:18AM 39.9694 -75.2611 42° Northeast 416 479 15,100 -2,640 Descending Washington Center
10:19AM 40.0481 -75.1658 43° Northeast 397 457 12,800 -1,980 Descending Washington Center
10:20AM 40.1250 -75.0653 45° Northeast 386 444 11,200 -1,200 Descending Washington Center
10:21AM 40.1975 -74.9803 42° Northeast 374 430 10,500 -1,140 Descending Washington Center
10:22AM 40.2667 -74.8833 47° Northeast 303 349 8,700 -1,140 Descending New York TRACON
10:23AM 40.3167 -74.8167 45° Northeast 294 338 8,100 -480 Descending New York TRACON
10:24AM 40.3500 -74.7167 66° East 289 333 7,900 -600 Descending New York TRACON
10:25AM 40.3667 -74.6167 78° East 290 334 6,900 -1,020 Descending New York TRACON
10:26AM 40.3833 -74.5167 78° East 277 319 5,900 -1,020 Descending New York TRACON
10:27AM 40.4000 -74.4167 78° East 250 288 4,900 -900 Descending New York TRACON
10:28AM 40.4333 -74.3500 57° Northeast 218 251 4,100 -780 Descending New York TRACON
10:29AM 40.4667 -74.3000 49° Northeast 201 231 3,400 -480 Descending New York TRACON
10:30AM 40.5167 -74.2667 27° Northeast 192 221 3,100 -300 Descending New York TRACON